Time;durP1;ratioP1;P1;durP2;ratioP2;P2;SDS_P1;SDS_P2;PMS_P1;PMS_P2;Temp;Humidity;BMP_temperature;BMP_pressure;BME280_temperature;BME280_humidity;BME280_pressure;Samples;Min_cycle;Max_cycle;Signal;HPM_P1;HPM_P2
2021/12/05 00:22:01;;;;;;;;;;;;;;;25.72;67.66;101320.84;5079886;27;65747;-44
2021/12/05 00:24:36;;;;;;;;;;;;;;;25.71;67.62;101329.91;5081383;27;70301;-44
2021/12/05 00:27:31;;;;;;;;;;;;;;;25.71;67.59;101331.75;5080653;27;66419;-44
2021/12/05 00:31:05;;;;;;;;;;;;;;;25.71;67.24;101329.91;5081385;27;69137;-44
2021/12/05 00:33:20;;;;;;;;;;;;;;;25.70;67.24;101333.59;5079799;27;66594;-46
2021/12/05 00:50:43;;;;;;;;;;;;;;;25.71;67.14;101359.44;5081603;27;66453;-44
2021/12/05 01:16:57;;;;;;;;;;;;;;;25.61;63.81;101377.66;5078548;27;66491;-43
2021/12/05 01:19:32;;;;;;;;;;;;;;;25.55;63.09;101370.28;5084344;27;69872;-45
2021/12/05 01:22:07;;;;;;;;;;;;;;;25.54;62.89;101365.91;5075664;27;66574;-44
2021/12/05 01:24:58;;;;;;;;;;;;;;;25.53;62.73;101372.28;5078442;27;69629;-43
2021/12/05 01:27:39;;;;;;;;;;;;;;;25.50;62.82;101369.97;5067286;27;66625;-44
2021/12/05 01:36:10;;;;;;;;;;;;;;;25.50;62.39;101383.38;5067660;27;69520;-46
2021/12/05 01:52:39;;;;;;;;;;;;;;;25.50;61.76;101378.00;5078712;27;69349;-45
2021/12/05 01:58:16;;;;;;;;;;;;;;;25.48;61.95;101370.13;5076314;27;70220;-46
2021/12/05 02:09:26;;;;;;;;;;;;;;;25.71;62.20;101361.31;5056645;27;70054;-47
2021/12/05 02:12:14;;;;;;;;;;;;;;;25.81;62.40;101362.78;5072826;27;66413;-47
2021/12/05 02:43:35;;;;;;;;;;;;;;;26.14;61.09;101346.53;5074118;27;70358;-42
2021/12/05 02:46:06;;;;;;;;;;;;;;;26.18;61.48;101344.31;5073312;27;65848;-41
2021/12/05 02:48:37;;;;;;;;;;;;;;;26.22;61.31;101340.28;5070156;27;69719;-42
2021/12/05 02:51:12;;;;;;;;;;;;;;;26.25;61.35;101326.47;5073646;27;66516;-43
2021/12/05 02:53:48;;;;;;;;;;;;;;;26.27;60.86;101336.03;5071287;27;70353;-43
2021/12/05 02:56:20;;;;;;;;;;;;;;;26.27;60.81;101322.59;5074613;28;66893;-42
2021/12/05 02:58:51;;;;;;;;;;;;;;;26.29;61.01;101323.22;5073305;27;68948;-43
2021/12/05 03:01:32;;;;;;;;;;;;;;;26.32;60.79;101332.78;5071752;27;66301;-42
2021/12/05 03:04:04;;;;;;;;;;;;;;;26.35;60.85;101336.97;5057839;27;69476;-43
2021/12/05 03:07:27;;;;;;;;;;;;;;;26.36;60.97;101323.34;5092211;27;66166;-43
2021/12/05 03:10:39;;;;;;;;;;;;;;;26.39;61.31;101312.25;5072746;27;69973;-46
2021/12/05 03:13:09;;;;;;;;;;;;;;;26.43;61.24;101323.47;5091671;27;66307;-44
2021/12/05 03:15:40;;;;;;;;;;;;;;;26.46;61.22;101315.03;5088387;27;70185;-44
2021/12/05 03:18:11;;;;;;;;;;;;;;;26.51;61.35;101323.44;5076044;27;66664;-42
2021/12/05 03:20:41;;;;;;;;;;;;;;;26.52;61.22;101314.34;5094973;27;70307;-44
2021/12/05 03:23:12;;;;;;;;;;;;;;;26.55;61.31;101314.00;5079502;27;66980;-44
2021/12/05 03:25:42;;;;;;;;;;;;;;;26.58;61.33;101310.94;5093709;27;70804;-44
2021/12/05 03:28:13;;;;;;;;;;;;;;;26.60;61.27;101308.88;5078788;27;65951;-43
2021/12/05 03:31:58;;;;;;;;;;;;;;;26.64;61.36;101296.75;5057093;28;70439;-44
2021/12/05 03:34:41;;;;;;;;;;;;;;;26.65;62.01;101301.13;5051859;28;66377;-43
2021/12/05 03:37:17;;;;;;;;;;;;;;;26.69;62.12;101291.69;5036695;28;70003;-43
2021/12/05 03:39:50;;;;;;;;;;;;;;;26.72;62.08;101285.94;5049413;28;65576;-44
2021/12/05 03:51:39;;;;;;;;;;;;;;;26.90;60.97;101276.66;5047769;28;70151;-46
2021/12/05 03:54:11;;;;;;;;;;;;;;;26.94;60.91;101272.56;5056014;28;66874;-45
2021/12/05 03:56:42;;;;;;;;;;;;;;;26.98;59.83;101263.13;5054896;28;69985;-45
2021/12/05 03:59:17;;;;;;;;;;;;;;;27.05;59.68;101252.44;5056434;28;66589;-45
2021/12/05 04:01:48;;;;;;;;;;;;;;;27.05;60.60;101256.00;5036691;28;70114;-45
2021/12/05 04:04:47;;;;;;;;;;;;;;;27.06;61.57;101249.56;5017964;28;65882;-45
2021/12/05 04:07:18;;;;;;;;;;;;;;;27.08;62.29;101242.16;5053268;27;69814;-46
2021/12/05 04:09:50;;;;;;;;;;;;;;;27.17;60.60;101241.06;5074021;27;65915;-45
2021/12/05 04:12:23;;;;;;;;;;;;;;;27.22;60.19;101236.94;5060559;27;69985;-46
2021/12/05 04:14:56;;;;;;;;;;;;;;;27.29;59.13;101238.72;5076539;27;66189;-45
2021/12/05 04:17:28;;;;;;;;;;;;;;;27.33;59.13;101231.09;5077830;27;69486;-45
2021/12/05 04:19:58;;;;;;;;;;;;;;;27.37;59.62;101219.75;5075003;27;65435;-48
2021/12/05 04:22:31;;;;;;;;;;;;;;;27.39;60.31;101217.72;5056746;28;69466;-45
2021/12/05 04:25:08;;;;;;;;;;;;;;;27.48;59.42;101221.13;5077009;27;67236;-46
2021/12/05 04:27:49;;;;;;;;;;;;;;;27.49;58.69;101212.00;5070768;27;69492;-46
2021/12/05 04:30:23;;;;;;;;;;;;;;;27.54;58.80;101209.59;5076272;27;66059;-45
2021/12/05 04:32:56;;;;;;;;;;;;;;;27.59;58.51;101196.38;5068431;27;69763;-46
2021/12/05 04:35:27;;;;;;;;;;;;;;;27.62;58.16;101192.47;5071945;27;66278;-46
2021/12/05 04:37:58;;;;;;;;;;;;;;;27.69;58.24;101184.44;5055584;28;69948;-46
2021/12/05 04:40:28;;;;;;;;;;;;;;;27.72;58.05;101184.06;5056639;27;66192;-46
2021/12/05 04:43:00;;;;;;;;;;;;;;;27.77;58.23;101181.63;5070786;28;69483;-46
2021/12/05 04:45:31;;;;;;;;;;;;;;;27.83;57.69;101180.88;5073575;27;65420;-45
2021/12/05 04:48:04;;;;;;;;;;;;;;;27.87;56.78;101176.81;5053506;28;70021;-46
2021/12/05 04:50:36;;;;;;;;;;;;;;;27.93;57.57;101175.19;5073598;27;66168;-46
2021/12/05 04:53:07;;;;;;;;;;;;;;;27.96;57.32;101161.31;5071868;27;70191;-44
2021/12/05 04:55:38;;;;;;;;;;;;;;;27.96;57.02;101148.66;5073968;27;67162;-45
2021/12/05 04:58:14;;;;;;;;;;;;;;;27.93;58.19;101138.28;5058789;28;70426;-46
2021/12/05 05:00:45;;;;;;;;;;;;;;;27.95;58.69;101133.53;5075592;27;65686;-44
2021/12/05 05:03:16;;;;;;;;;;;;;;;28.00;58.25;101127.53;5075463;27;69051;-44
2021/12/05 05:05:52;;;;;;;;;;;;;;;27.98;58.14;101125.03;5076329;27;66738;-45
2021/12/05 05:08:25;;;;;;;;;;;;;;;28.05;57.30;101119.69;5076802;28;69884;-46
2021/12/05 05:10:58;;;;;;;;;;;;;;;28.07;57.20;101110.38;5077271;27;65533;-45
2021/12/05 05:13:30;;;;;;;;;;;;;;;28.11;56.69;101110.00;5069529;27;70415;-44
2021/12/05 05:16:03;;;;;;;;;;;;;;;28.15;56.75;101098.63;5075755;27;65769;-45
2021/12/05 05:18:48;;;;;;;;;;;;;;;28.19;56.64;101099.06;5074594;27;70810;-45
2021/12/05 05:21:39;;;;;;;;;;;;;;;28.22;56.61;101087.88;5067779;27;65386;-44
2021/12/05 05:29:51;;;;;;;;;;;;;;;28.25;56.85;101063.19;5075202;27;69777;-44
2021/12/05 05:44:12;;;;;;;;;;;;;;;28.40;56.27;101022.63;5076027;27;66551;-44
2021/12/05 05:51:49;;;;;;;;;;;;;;;28.46;57.03;101002.94;5073840;28;69995;-43
2021/12/05 05:54:19;;;;;;;;;;;;;;;28.44;57.78;100995.03;5076251;27;68754;-43
2021/12/05 05:56:56;;;;;;;;;;;;;;;28.42;58.78;100991.75;5071127;27;71280;-40
2021/12/05 05:59:34;;;;;;;;;;;;;;;28.40;59.67;100987.53;5075479;27;66648;-42
2021/12/05 06:06:51;;;;;;;;;;;;;;;28.41;60.40;100973.84;5071883;27;66387;-42
2021/12/05 06:09:22;;;;;;;;;;;;;;;28.42;61.06;100969.28;5073417;27;69092;-41
2021/12/05 06:11:52;;;;;;;;;;;;;;;28.40;61.05;100964.09;5069335;27;66087;-42
2021/12/05 06:14:24;;;;;;;;;;;;;;;28.41;60.98;100956.81;5076112;27;70715;-43
2021/12/05 06:16:55;;;;;;;;;;;;;;;28.43;61.42;100958.31;5073476;27;65477;-40
2021/12/05 06:19:29;;;;;;;;;;;;;;;28.44;61.87;100951.88;5075602;27;70567;-42
2021/12/05 06:22:00;;;;;;;;;;;;;;;28.48;61.92;100950.44;5069982;27;66400;-41
2021/12/05 06:24:31;;;;;;;;;;;;;;;28.50;62.29;100951.09;5063954;27;70218;-42
2021/12/05 06:27:02;;;;;;;;;;;;;;;28.51;62.13;100941.94;5073453;27;65759;-43
2021/12/05 06:29:39;;;;;;;;;;;;;;;28.54;62.40;100934.50;5074852;27;70981;-42
2021/12/05 06:32:39;;;;;;;;;;;;;;;28.55;62.60;100930.75;5074339;27;66625;-42
2021/12/05 06:38:56;;;;;;;;;;;;;;;28.61;62.56;100929.91;5073907;27;65436;-41
2021/12/05 06:46:16;;;;;;;;;;;;;;;28.67;63.28;100907.53;5066073;27;68911;-42
2021/12/05 06:48:50;;;;;;;;;;;;;;;28.69;63.49;100910.84;5071621;27;66754;-42
2021/12/05 06:51:23;;;;;;;;;;;;;;;28.72;63.46;100900.50;5072033;27;69782;-42
2021/12/05 06:53:54;;;;;;;;;;;;;;;28.76;63.15;100900.91;5074757;27;66776;-41
2021/12/05 06:56:25;;;;;;;;;;;;;;;28.78;63.14;100898.84;5076138;27;69740;-41
2021/12/05 06:58:55;;;;;;;;;;;;;;;28.81;63.42;100892.19;5069690;27;66200;-41
2021/12/05 07:01:26;;;;;;;;;;;;;;;28.84;63.40;100898.00;5075915;27;69435;-41
2021/12/05 07:04:03;;;;;;;;;;;;;;;28.88;63.76;100887.63;5073248;27;66676;-42
2021/12/05 07:06:53;;;;;;;;;;;;;;;28.88;63.87;100891.13;5060914;28;70721;-40
2021/12/05 07:09:30;;;;;;;;;;;;;;;28.92;63.65;100895.09;5073848;27;66360;-40
2021/12/05 07:12:38;;;;;;;;;;;;;;;28.94;63.45;100876.81;5073199;27;69794;-40
2021/12/05 07:15:03;;;;;;;;;;;;;;;28.95;63.81;100874.97;5072509;27;66326;-40
2021/12/05 07:20:46;;;;;;;;;;;;;;;28.99;63.78;100883.47;5072998;27;66673;-40
2021/12/05 07:23:42;;;;;;;;;;;;;;;29.01;63.87;100876.00;5072603;27;69688;-42
2021/12/05 07:41:25;;;;;;;;;;;;;;;29.13;63.78;100863.56;5075828;27;69946;-41
2021/12/05 07:43:57;;;;;;;;;;;;;;;29.12;64.33;100851.91;5040920;28;65518;-41
2021/12/05 07:46:27;;;;;;;;;;;;;;;29.13;63.83;100852.75;5077949;27;70108;-42
2021/12/05 07:48:58;;;;;;;;;;;;;;;29.16;64.39;100853.16;5077595;27;66460;-42
2021/12/05 07:51:31;;;;;;;;;;;;;;;29.17;63.98;100843.19;5073908;27;69185;-41
2021/12/05 07:54:14;;;;;;;;;;;;;;;29.20;63.92;100848.19;5076628;27;65710;-42
2021/12/05 07:56:52;;;;;;;;;;;;;;;29.21;64.37;100849.84;5072103;27;70337;-42
2021/12/05 07:59:43;;;;;;;;;;;;;;;29.27;64.12;100848.16;5076368;27;66687;-41
2021/12/05 08:14:29;;;;;;;;;;;;;;;29.33;64.71;100845.44;5081543;27;69658;-42
2021/12/05 08:17:01;;;;;;;;;;;;;;;29.33;64.53;100848.13;5080291;27;65885;-42
2021/12/05 08:19:31;;;;;;;;;;;;;;;29.35;64.92;100846.06;5078602;27;69412;-42
2021/12/05 08:22:02;;;;;;;;;;;;;;;29.40;64.97;100848.97;5079670;27;66010;-41
2021/12/05 08:24:38;;;;;;;;;;;;;;;29.42;65.19;100845.22;5079981;27;69648;-41
2021/12/05 08:27:13;;;;;;;;;;;;;;;29.42;65.26;100847.91;5078561;27;66634;-41
2021/12/05 08:30:30;;;;;;;;;;;;;;;29.46;64.86;100846.47;5078782;27;69374;-41
2021/12/05 09:25:39;;;;;;;;;;;;;;;29.44;61.05;100875.56;5072167;27;66362;-43
2021/12/05 10:01:39;;;;;;;;;;;;;;;29.35;62.26;100899.28;5076202;27;65630;-44
2021/12/05 10:02:35;;;;;;;;;;;;;;;29.33;62.36;100896.78;5074062;27;70046;-44
2021/12/05 10:10:51;;;;;;;;;;;;;;;29.30;62.68;100907.19;5074863;27;66202;-44
2021/12/05 10:13:42;;;;;;;;;;;;;;;29.28;63.46;100907.41;5076180;27;68974;-44
2021/12/05 10:16:26;;;;;;;;;;;;;;;29.28;63.39;100912.81;5058709;28;65959;-44
2021/12/05 10:38:43;;;;;;;;;;;;;;;29.27;66.19;100940.84;5077859;27;66574;-43
2021/12/05 10:49:54;;;;;;;;;;;;;;;29.25;66.59;100959.13;5071323;27;70802;-44
2021/12/05 10:52:26;;;;;;;;;;;;;;;29.25;66.32;100950.19;5076292;27;66585;-48
2021/12/05 10:56:02;;;;;;;;;;;;;;;29.30;65.74;100961.22;5068888;27;71286;-46
2021/12/05 10:58:37;;;;;;;;;;;;;;;29.31;64.71;100963.72;5076614;27;66799;-48
2021/12/05 11:01:10;;;;;;;;;;;;;;;29.32;64.52;100965.38;5075668;27;69837;-46
2021/12/05 11:03:41;;;;;;;;;;;;;;;29.34;64.79;100957.91;5076704;27;67152;-46
2021/12/05 11:06:19;;;;;;;;;;;;;;;29.35;64.33;100964.94;5077996;27;69435;-46
2021/12/05 11:08:52;;;;;;;;;;;;;;;29.37;63.29;100956.66;5075591;27;66170;-44
2021/12/05 11:11:22;;;;;;;;;;;;;;;29.34;63.08;100957.91;5075308;27;70323;-46
2021/12/05 11:13:52;;;;;;;;;;;;;;;29.35;63.26;100970.34;5074799;27;66933;-46
2021/12/05 11:16:34;;;;;;;;;;;;;;;29.34;61.85;100966.00;5076184;27;69970;-46
2021/12/05 11:19:17;;;;;;;;;;;;;;;29.36;60.75;100961.22;5077595;27;65347;-45
2021/12/05 11:22:00;;;;;;;;;;;;;;;29.35;61.27;100970.34;5079110;27;70271;-47
2021/12/05 11:24:37;;;;;;;;;;;;;;;29.35;61.41;100975.75;5076644;27;66600;-44
2021/12/05 11:27:09;;;;;;;;;;;;;;;29.37;61.09;100973.69;5072418;27;70475;-43
2021/12/05 11:29:44;;;;;;;;;;;;;;;29.39;61.04;100971.63;5078795;27;67145;-46
2021/12/05 11:32:16;;;;;;;;;;;;;;;29.40;61.64;100977.84;5077394;27;70443;-46
2021/12/05 11:34:47;;;;;;;;;;;;;;;29.37;61.62;100973.69;5059212;27;65599;-45
2021/12/05 11:37:17;;;;;;;;;;;;;;;29.36;61.18;100980.16;5076872;27;69896;-44
2021/12/05 11:39:48;;;;;;;;;;;;;;;29.36;61.64;100982.84;5079990;27;65609;-45
2021/12/05 11:42:20;;;;;;;;;;;;;;;29.37;60.97;100976.41;5074495;27;70142;-47
2021/12/05 11:45:02;;;;;;;;;;;;;;;29.39;61.67;100979.72;5081897;27;65593;-45
2021/12/05 11:47:36;;;;;;;;;;;;;;;29.16;61.67;100950.41;5078722;27;70703;-50
2021/12/05 11:50:09;;;;;;;;;;;;;;;29.37;61.25;100984.50;5080217;27;65535;-50
2021/12/05 11:52:39;;;;;;;;;;;;;;;29.38;61.17;100979.91;5081997;27;70101;-47
2021/12/05 11:55:20;;;;;;;;;;;;;;;29.36;61.28;100993.66;5078808;27;66132;-48
2021/12/05 11:57:51;;;;;;;;;;;;;;;29.35;61.38;100997.38;5090094;27;70171;-45
2021/12/05 12:00:22;;;;;;;;;;;;;;;29.35;61.22;101001.97;5083367;27;66603;-44
2021/12/05 12:02:52;;;;;;;;;;;;;;;29.35;60.78;101002.78;5063205;28;72157;-49
2021/12/05 12:05:24;;;;;;;;;;;;;;;29.30;60.61;101005.25;5061575;28;66535;-46
2021/12/05 12:08:07;;;;;;;;;;;;;;;29.31;60.61;101012.34;5079880;27;69963;-46
2021/12/05 12:10:42;;;;;;;;;;;;;;;29.30;60.38;101016.06;5079175;28;65570;-47
2021/12/05 12:13:20;;;;;;;;;;;;;;;29.29;60.33;101019.81;5081849;27;70503;-50
2021/12/05 12:15:58;;;;;;;;;;;;;;;29.27;60.78;101024.59;5081477;27;66396;-48
2021/12/05 12:18:32;;;;;;;;;;;;;;;29.25;60.28;101023.97;5078912;27;70071;-49
2021/12/05 12:21:07;;;;;;;;;;;;;;;29.24;60.69;101022.31;5081553;27;66386;-53
2021/12/05 12:23:37;;;;;;;;;;;;;;;29.25;60.12;101023.13;5080679;27;68946;-51
2021/12/05 12:26:08;;;;;;;;;;;;;;;29.23;60.07;101026.06;5078697;27;66936;-50
2021/12/05 12:28:39;;;;;;;;;;;;;;;29.23;59.64;101017.97;5081172;27;69721;-53
2021/12/05 12:31:12;;;;;;;;;;;;;;;29.22;59.37;101023.56;5081818;27;66171;-53
2021/12/05 12:33:44;;;;;;;;;;;;;;;29.16;59.85;101027.91;5081024;27;70508;-53
2021/12/05 12:36:14;;;;;;;;;;;;;;;29.14;59.49;101027.28;5063609;27;66048;-54
2021/12/05 12:38:44;;;;;;;;;;;;;;;29.13;59.79;101031.03;5087646;27;69783;-53
2021/12/05 12:41:17;;;;;;;;;;;;;;;28.86;60.41;100982.34;5081930;27;66617;-53
2021/12/05 12:43:58;;;;;;;;;;;;;;;29.12;60.09;101037.47;5079782;27;69466;-51
2021/12/05 12:46:34;;;;;;;;;;;;;;;29.11;60.78;101035.78;5078412;27;66308;-51
2021/12/05 12:49:16;;;;;;;;;;;;;;;29.11;60.76;101039.34;5079485;27;70211;-46
2021/12/05 12:52:08;;;;;;;;;;;;;;;29.12;60.81;101037.47;5077607;27;65842;-49
2021/12/05 12:54:40;;;;;;;;;;;;;;;29.11;61.33;101041.19;5070934;27;70728;-50
2021/12/05 12:57:16;;;;;;;;;;;;;;;29.12;61.18;101040.16;5078793;27;65285;-48
2021/12/05 13:00:00;;;;;;;;;;;;;;;29.09;60.69;101040.59;5060947;27;68952;-49
2021/12/05 13:03:00;;;;;;;;;;;;;;;29.08;60.97;101045.13;5076961;27;66144;-48
2021/12/05 13:11:15;;;;;;;;;;;;;;;29.02;60.00;101059.41;5076206;27;69158;-47
2021/12/05 13:13:46;;;;;;;;;;;;;;;28.98;59.97;101066.28;5074048;27;65962;-48
2021/12/05 13:16:26;;;;;;;;;;;;;;;28.99;60.17;101067.09;5075698;27;70382;-47
2021/12/05 13:19:05;;;;;;;;;;;;;;;28.93;60.30;101072.28;5079266;27;66325;-48
2021/12/05 13:21:39;;;;;;;;;;;;;;;28.89;59.97;101073.72;5075114;28;69699;-48
2021/12/05 13:24:25;;;;;;;;;;;;;;;28.86;60.52;101079.53;5077120;27;66264;-47
2021/12/05 13:27:04;;;;;;;;;;;;;;;28.82;59.95;101072.88;5058265;28;70336;-47
2021/12/05 13:29:36;;;;;;;;;;;;;;;28.81;60.46;101065.81;5076123;27;66098;-48
2021/12/05 13:32:13;;;;;;;;;;;;;;;28.80;60.21;101074.94;5057574;28;69879;-48
2021/12/05 13:34:59;;;;;;;;;;;;;;;28.78;60.86;101077.00;5088793;27;65285;-49
2021/12/05 13:37:37;;;;;;;;;;;;;;;28.76;60.34;101073.69;5076265;27;70139;-50
2021/12/05 13:40:27;;;;;;;;;;;;;;;28.73;60.39;101084.88;5075818;27;66269;-48
2021/12/05 13:43:05;;;;;;;;;;;;;;;28.71;60.35;101084.25;5075021;27;69391;-48
2021/12/05 13:45:44;;;;;;;;;;;;;;;28.70;60.50;101082.59;5063242;28;65924;-49
2021/12/05 13:48:29;;;;;;;;;;;;;;;28.68;60.94;101087.34;5077776;27;70466;-49
2021/12/05 13:51:22;;;;;;;;;;;;;;;28.74;62.04;101084.66;5069255;27;66465;-48
2021/12/05 13:53:59;;;;;;;;;;;;;;;28.82;62.64;101089.06;5073728;27;71062;-45
2021/12/05 14:00:33;;;;;;;;;;;;;;;28.36;56.38;101095.03;5071429;27;69187;-35
2021/12/05 14:03:09;;;;;;;;;;;;;;;28.15;54.51;101098.63;5071409;27;65454;-34
2021/12/05 14:05:47;;;;;;;;;;;;;;;27.93;53.02;101095.13;5071469;27;70348;-35
2021/12/05 14:08:17;;;;;;;;;;;;;;;27.83;51.12;101100.00;5077113;27;66913;-33
2021/12/05 14:10:49;;;;;;;;;;;;;;;27.78;51.99;101097.06;5078212;27;69471;-34
2021/12/05 14:13:23;;;;;;;;;;;;;;;27.71;52.10;101101.56;5076581;27;66239;-34
2021/12/05 14:15:58;;;;;;;;;;;;;;;27.69;52.65;101109.81;5077110;27;69713;-34
2021/12/05 14:18:33;;;;;;;;;;;;;;;27.65;52.69;101102.34;5077877;27;66753;-35
2021/12/05 14:21:26;;;;;;;;;;;;;;;27.61;52.50;101102.72;5069996;27;70343;-34
2021/12/05 14:23:58;;;;;;;;;;;;;;;27.59;52.77;101107.47;5049082;28;64832;-34
2021/12/05 14:26:39;;;;;;;;;;;;;;;27.55;52.44;101114.28;5078212;27;69142;-33
2021/12/05 14:29:17;;;;;;;;;;;;;;;27.47;52.54;101106.31;5078438;27;66098;-37
2021/12/05 14:31:52;;;;;;;;;;;;;;;27.48;52.29;101107.16;5078584;27;70332;-35
2021/12/05 14:34:26;;;;;;;;;;;;;;;27.42;52.12;101106.06;5076941;27;65608;-34
2021/12/05 14:37:04;;;;;;;;;;;;;;;27.42;52.08;101105.22;5076631;27;70227;-33
2021/12/05 14:39:38;;;;;;;;;;;;;;;27.37;51.89;101117.38;5053245;27;66611;-33
2021/12/05 14:42:17;;;;;;;;;;;;;;;27.26;51.90;101108.97;5058771;28;70370;-34
2021/12/05 14:44:49;;;;;;;;;;;;;;;27.22;51.44;101102.28;5075975;27;66308;-35
2021/12/05 14:47:21;;;;;;;;;;;;;;;27.20;51.60;101109.75;5073653;27;70389;-34
2021/12/05 14:49:53;;;;;;;;;;;;;;;27.26;51.42;101119.75;5078882;27;66878;-35
2021/12/05 14:52:31;;;;;;;;;;;;;;;27.20;51.63;101125.91;5075904;27;68642;-34
2021/12/05 14:55:04;;;;;;;;;;;;;;;27.15;51.53;101124.56;5064653;27;66524;-34
2021/12/05 14:57:39;;;;;;;;;;;;;;;27.13;51.42;101131.16;5076353;27;70335;-35
2021/12/05 15:00:15;;;;;;;;;;;;;;;27.06;51.20;101124.88;5078042;27;64825;-34
2021/12/05 15:02:47;;;;;;;;;;;;;;;27.06;51.22;101139.19;5078748;27;69090;-34
2021/12/05 15:05:18;;;;;;;;;;;;;;;27.01;50.79;101128.13;5078003;27;66351;-35
2021/12/05 15:07:49;;;;;;;;;;;;;;;26.91;50.57;101117.66;5076887;27;69818;-35
2021/12/05 15:10:20;;;;;;;;;;;;;;;26.94;50.70;101121.81;5078166;27;65219;-34
2021/12/05 15:12:52;;;;;;;;;;;;;;;26.94;50.92;101132.59;5076861;27;69966;-34
2021/12/05 15:15:24;;;;;;;;;;;;;;;26.92;50.69;101123.88;5081083;27;66827;-33
2021/12/05 15:17:55;;;;;;;;;;;;;;;26.93;51.10;101128.22;5081874;27;68792;-34
2021/12/05 15:20:30;;;;;;;;;;;;;;;26.91;51.04;101122.19;5075692;27;66405;-33
2021/12/05 15:23:06;;;;;;;;;;;;;;;26.97;51.83;101121.47;5077313;27;69208;-35
2021/12/05 15:25:37;;;;;;;;;;;;;;;27.10;51.47;101115.38;5063769;28;66208;-34
2021/12/05 15:28:09;;;;;;;;;;;;;;;27.14;51.55;101101.38;5082053;27;70314;-35
2021/12/05 15:30:44;;;;;;;;;;;;;;;27.14;51.15;101101.38;5064676;28;66362;-34
2021/12/05 15:33:17;;;;;;;;;;;;;;;27.14;50.81;101098.66;5081552;27;70332;-34
2021/12/05 15:35:49;;;;;;;;;;;;;;;27.11;50.85;101096.38;5081033;27;66743;-35
2021/12/05 15:38:23;;;;;;;;;;;;;;;27.08;50.68;101102.13;5083605;27;69595;-34
2021/12/05 15:40:54;;;;;;;;;;;;;;;27.01;50.22;101100.38;5080276;27;65988;-33
2021/12/05 15:43:26;;;;;;;;;;;;;;;26.98;50.28;101096.19;5080440;27;69787;-34
2021/12/05 15:45:57;;;;;;;;;;;;;;;26.99;50.21;101102.41;5075187;27;65860;-34
2021/12/05 15:48:31;;;;;;;;;;;;;;;26.97;50.00;101099.94;5080014;27;69087;-34
2021/12/05 15:51:03;;;;;;;;;;;;;;;26.93;50.15;101086.00;5081141;27;66108;-33
2021/12/05 15:53:35;;;;;;;;;;;;;;;26.90;49.66;101083.69;5082520;27;70236;-33
2021/12/05 15:56:06;;;;;;;;;;;;;;;26.91;50.15;101093.44;5085505;27;65601;-33
2021/12/05 16:02:18;;;;;;;;;;;;;;;26.88;50.06;101096.47;5077615;27;66131;-34
2021/12/05 16:04:49;;;;;;;;;;;;;;;26.87;51.57;101057.13;5080565;27;70552;-34
2021/12/05 16:07:40;;;;;;;;;;;;;;;27.02;53.40;101070.56;5082956;27;66579;-33
2021/12/05 16:10:59;;;;;;;;;;;;;;;27.12;54.24;101076.47;5080269;27;69866;-34
2021/12/05 16:13:43;;;;;;;;;;;;;;;;;;;;;
2021/12/05 16:16:45;;;;;;;;;;;;;;;27.22;57.68;101072.66;5082775;27;69892;-34
2021/12/05 16:19:16;;;;;;;;;;;;;;;27.06;56.23;101054.88;5079011;27;65385;-35
2021/12/05 16:22:39;;;;;;;;;;;;;;;27.06;54.30;101065.66;5080084;27;70710;-34
2021/12/05 16:24:54;;;;;;;;;;;;;;;27.04;53.67;101073.91;5072546;27;66635;-33
2021/12/05 16:27:24;;;;;;;;;;;;;;;27.01;53.09;101071.59;5083266;27;70024;-34
2021/12/05 16:29:54;;;;;;;;;;;;;;;26.93;52.69;101063.63;5080490;27;66074;-34
2021/12/05 16:32:27;;;;;;;;;;;;;;;26.94;52.26;101070.66;5081143;27;70475;-33
2021/12/05 16:34:57;;;;;;;;;;;;;;;26.83;51.87;101066.63;5082897;27;67141;-34
2021/12/05 16:37:30;;;;;;;;;;;;;;;26.85;51.51;101075.31;5074814;27;69264;-34
2021/12/05 16:43:41;;;;;;;;;;;;;;;26.82;52.23;101058.72;5077544;27;70711;-33
2021/12/05 16:46:47;;;;;;;;;;;;;;;26.95;53.55;101064.28;5081163;27;65463;-34
2021/12/05 16:49:38;;;;;;;;;;;;;;;26.96;55.24;101060.56;5079165;27;68950;-34
2021/12/05 16:52:20;;;;;;;;;;;;;;;27.08;55.82;101060.88;5074569;27;67049;-32
2021/12/05 16:55:19;;;;;;;;;;;;;;;27.13;57.20;101067.38;5078699;27;70261;-33
2021/12/05 16:58:27;;;;;;;;;;;;;;;27.07;59.02;101068.13;5065656;27;66168;-33
2021/12/05 17:00:58;;;;;;;;;;;;;;;27.07;57.09;101067.31;5084238;27;70436;-33
2021/12/05 17:03:29;;;;;;;;;;;;;;;27.02;56.65;101061.66;5082263;27;67015;-33
2021/12/05 17:06:09;;;;;;;;;;;;;;;26.90;55.67;101045.16;5080291;27;70103;-33
2021/12/05 17:08:47;;;;;;;;;;;;;;;26.92;54.81;101053.88;5080394;27;65619;-33
2021/12/05 17:11:18;;;;;;;;;;;;;;;26.82;54.33;101047.97;5081193;27;69943;-33
2021/12/05 17:13:50;;;;;;;;;;;;;;;26.81;53.45;101059.75;5083096;27;66466;-33
2021/12/05 17:20:01;;;;;;;;;;;;;;;26.89;55.10;101057.78;5071187;27;66760;-33
2021/12/05 17:23:00;;;;;;;;;;;;;;;26.89;55.99;101048.88;5080428;27;70662;-33
2021/12/05 17:25:30;;;;;;;;;;;;;;;26.94;56.93;101047.28;5081651;27;67261;-33
2021/12/05 17:28:02;;;;;;;;;;;;;;;27.05;57.15;101059.44;5080031;27;70171;-34
2021/12/05 17:30:32;;;;;;;;;;;;;;;27.08;57.96;101052.81;5081099;27;66331;-34
2021/12/05 17:33:04;;;;;;;;;;;;;;;27.12;59.62;101054.94;5080260;27;69823;-38
2021/12/05 17:36:15;;;;;;;;;;;;;;;27.08;60.38;101059.06;5079302;27;65617;-34
2021/12/05 17:39:16;;;;;;;;;;;;;;;27.00;59.00;101056.47;5082087;27;69740;-34
2021/12/05 17:41:53;;;;;;;;;;;;;;;26.91;57.92;101047.69;5078385;27;66776;-33
2021/12/05 17:44:23;;;;;;;;;;;;;;;26.90;56.81;101048.69;5081428;27;69637;-32
2021/12/05 17:47:34;;;;;;;;;;;;;;;26.84;56.16;101051.31;5078043;27;66651;-32
2021/12/05 17:50:09;;;;;;;;;;;;;;;26.80;55.37;101040.09;5076229;27;70027;-33
2021/12/05 17:56:16;;;;;;;;;;;;;;;26.86;57.46;101033.94;5065982;27;70313;-33
2021/12/05 18:05:16;;;;;;;;;;;;;;;26.95;59.56;101005.06;5074019;27;65557;-35
2021/12/05 18:08:07;;;;;;;;;;;;;;;27.09;60.18;101017.63;5081742;27;69751;-34
2021/12/05 18:10:40;;;;;;;;;;;;;;;27.04;61.65;101009.28;5077877;27;66211;-32
2021/12/05 18:13:11;;;;;;;;;;;;;;;26.94;60.08;100998.84;5080498;27;70092;-34
2021/12/05 18:15:56;;;;;;;;;;;;;;;26.92;59.08;101000.06;5081684;27;66490;-33
2021/12/05 18:18:28;;;;;;;;;;;;;;;26.86;58.19;101003.50;5080841;27;69281;-34
2021/12/05 18:20:59;;;;;;;;;;;;;;;26.80;57.44;101001.56;5081920;27;65558;-33
2021/12/05 18:23:30;;;;;;;;;;;;;;;26.82;57.57;100999.53;5075488;27;69824;-33
2021/12/05 18:26:05;;;;;;;;;;;;;;;26.85;58.37;101004.50;5077603;27;66546;-33
2021/12/05 18:29:16;;;;;;;;;;;;;;;26.88;59.11;101010.34;5080262;27;70175;-33
2021/12/05 18:31:47;;;;;;;;;;;;;;;26.92;59.23;101010.81;5037662;28;66835;-33
2021/12/05 18:34:27;;;;;;;;;;;;;;;26.90;59.88;100996.72;5036935;28;63635;-33
2021/12/05 18:36:58;;;;;;;;;;;;;;;27.01;60.69;100998.06;5063738;27;65635;-33
2021/12/05 18:39:31;;;;;;;;;;;;;;;27.00;61.04;100991.84;5079855;27;70077;-33
2021/12/05 18:42:05;;;;;;;;;;;;;;;26.94;62.74;100993.47;5081991;27;66613;-33
2021/12/05 18:44:40;;;;;;;;;;;;;;;26.88;61.00;100979.91;5086536;27;70494;-33
2021/12/05 18:47:10;;;;;;;;;;;;;;;26.90;60.10;100985.94;5080219;27;65699;-33
2021/12/05 18:50:15;;;;;;;;;;;;;;;26.80;59.00;100990.78;5079900;27;70839;-33
2021/12/05 18:53:37;;;;;;;;;;;;;;;26.78;58.69;100974.03;5078280;27;67208;-33
2021/12/05 18:56:29;;;;;;;;;;;;;;;26.80;59.46;100963.88;5071739;27;70359;-33
2021/12/05 18:58:59;;;;;;;;;;;;;;;26.86;59.67;100971.22;5078789;27;66619;-33
2021/12/05 19:04:31;;;;;;;;;;;;;;;26.92;61.00;100965.88;5077970;27;66197;-34
2021/12/05 19:07:13;;;;;;;;;;;;;;;26.96;61.71;100959.06;5079440;27;70490;-33
2021/12/05 19:12:26;;;;;;;;;;;;;;;27.02;63.75;100952.09;5079914;27;69497;-33
2021/12/05 19:15:18;;;;;;;;;;;;;;;26.92;62.98;100947.03;5080739;27;66247;-33
2021/12/05 19:21:08;;;;;;;;;;;;;;;26.81;60.49;100954.81;5076511;28;66251;-34
2021/12/05 19:24:11;;;;;;;;;;;;;;;26.77;59.68;100954.31;5079863;27;71156;-33